sensor_id;sensor_type;location;lat;lon;timestamp;pressure;altitude;pressure_sealevel;temperature
75773;BMP280;64381;0.000;0.000;2022-10-30T00:02:19;95905.59;;;21.61
75773;BMP280;64381;0.000;0.000;2022-10-30T00:04:44;95904.09;;;21.60
75773;BMP280;64381;0.000;0.000;2022-10-30T00:07:10;95898.53;;;21.60
75773;BMP280;64381;0.000;0.000;2022-10-30T00:09:35;95899.69;;;21.57
75773;BMP280;64381;0.000;0.000;2022-10-30T00:12:00;95889.13;;;21.56
75773;BMP280;64381;0.000;0.000;2022-10-30T00:14:25;95894.16;;;21.57
75773;BMP280;64381;0.000;0.000;2022-10-30T00:16:50;95888.22;;;21.53
75773;BMP280;64381;0.000;0.000;2022-10-30T00:19:16;95891.00;;;21.53
75773;BMP280;64381;0.000;0.000;2022-10-30T00:21:41;95888.78;;;21.52
75773;BMP280;64381;0.000;0.000;2022-10-30T00:24:06;95886.72;;;21.52
75773;BMP280;64381;0.000;0.000;2022-10-30T00:26:31;95890.84;;;21.51
75773;BMP280;64381;0.000;0.000;2022-10-30T00:28:57;95888.22;;;21.53
75773;BMP280;64381;0.000;0.000;2022-10-30T00:31:22;95888.78;;;21.52
75773;BMP280;64381;0.000;0.000;2022-10-30T00:33:52;95881.00;;;21.50
75773;BMP280;64381;0.000;0.000;2022-10-30T00:36:17;95879.72;;;21.51
75773;BMP280;64381;0.000;0.000;2022-10-30T00:38:43;95883.03;;;21.50
75773;BMP280;64381;0.000;0.000;2022-10-30T00:41:16;95881.75;;;21.51
75773;BMP280;64381;0.000;0.000;2022-10-30T00:43:42;95887.69;;;21.47
75773;BMP280;64381;0.000;0.000;2022-10-30T00:46:27;95879.56;;;21.49
75773;BMP280;64381;0.000;0.000;2022-10-30T00:48:56;95883.41;;;21.46
75773;BMP280;64381;0.000;0.000;2022-10-30T00:51:22;95873.06;;;21.47
75773;BMP280;64381;0.000;0.000;2022-10-30T00:53:48;95877.16;;;21.46
75773;BMP280;64381;0.000;0.000;2022-10-30T00:56:15;95871.59;;;21.46
75773;BMP280;64381;0.000;0.000;2022-10-30T00:58:45;95873.63;;;21.45
75773;BMP280;64381;0.000;0.000;2022-10-30T01:01:16;95866.63;;;21.44
75773;BMP280;64381;0.000;0.000;2022-10-30T01:03:44;95873.47;;;21.43
75773;BMP280;64381;0.000;0.000;2022-10-30T01:06:11;95873.47;;;21.43
75773;BMP280;64381;0.000;0.000;2022-10-30T01:08:38;95876.97;;;21.44
75773;BMP280;64381;0.000;0.000;2022-10-30T01:11:04;95880.50;;;21.44
75773;BMP280;64381;0.000;0.000;2022-10-30T01:13:31;95879.75;;;21.44
75773;BMP280;64381;0.000;0.000;2022-10-30T01:19:03;95879.75;;;21.44
75773;BMP280;64381;0.000;0.000;2022-10-30T01:21:55;95880.31;;;21.42
75773;BMP280;64381;0.000;0.000;2022-10-30T01:34:58;95871.22;;;21.42
75773;BMP280;64381;0.000;0.000;2022-10-30T01:37:44;95872.56;;;21.41
75773;BMP280;64381;0.000;0.000;2022-10-30T01:40:14;95876.06;;;21.41
75773;BMP280;64381;0.000;0.000;2022-10-30T01:42:47;95878.84;;;21.41
75773;BMP280;64381;0.000;0.000;2022-10-30T01:47:54;95874.00;;;21.42
75773;BMP280;64381;0.000;0.000;2022-10-30T01:53:03;95881.41;;;21.39
75773;BMP280;64381;0.000;0.000;2022-10-30T01:55:44;95876.63;;;21.40
75773;BMP280;64381;0.000;0.000;2022-10-30T01:58:18;95877.19;;;21.38
75773;BMP280;64381;0.000;0.000;2022-10-30T02:00:51;95886.25;;;21.39
75773;BMP280;64381;0.000;0.000;2022-10-30T02:03:17;95884.94;;;21.40
75773;BMP280;64381;0.000;0.000;2022-10-30T02:05:47;95884.19;;;21.39
75773;BMP280;64381;0.000;0.000;2022-10-30T02:08:13;95874.41;;;21.38
75773;BMP280;64381;0.000;0.000;2022-10-30T02:10:40;95884.19;;;21.39
75773;BMP280;64381;0.000;0.000;2022-10-30T02:13:06;95875.88;;;21.39
75773;BMP280;64381;0.000;0.000;2022-10-30T02:15:31;95882.75;;;21.38
75773;BMP280;64381;0.000;0.000;2022-10-30T02:17:57;95876.47;;;21.38
75773;BMP280;64381;0.000;0.000;2022-10-30T02:20:23;95879.97;;;21.38
75773;BMP280;64381;0.000;0.000;2022-10-30T02:22:48;95880.72;;;21.39
75773;BMP280;64381;0.000;0.000;2022-10-30T02:25:14;95879.25;;;21.38
75773;BMP280;64381;0.000;0.000;2022-10-30T02:27:40;95878.50;;;21.37
75773;BMP280;64381;0.000;0.000;2022-10-30T02:30:06;95882.75;;;21.38
75773;BMP280;64381;0.000;0.000;2022-10-30T02:32:31;95877.75;;;21.37
75773;BMP280;64381;0.000;0.000;2022-10-30T02:34:57;95879.78;;;21.36
75773;BMP280;64381;0.000;0.000;2022-10-30T02:37:22;95875.00;;;21.37
75773;BMP280;64381;0.000;0.000;2022-10-30T02:39:47;95870.19;;;21.37
75773;BMP280;64381;0.000;0.000;2022-10-30T02:42:12;95880.53;;;21.37
75773;BMP280;64381;0.000;0.000;2022-10-30T02:44:37;95877.00;;;21.36
75773;BMP280;64381;0.000;0.000;2022-10-30T02:47:03;95881.06;;;21.35
75773;BMP280;64381;0.000;0.000;2022-10-30T02:49:28;95877.56;;;21.35
75773;BMP280;64381;0.000;0.000;2022-10-30T02:51:53;95878.31;;;21.35
75773;BMP280;64381;0.000;0.000;2022-10-30T02:54:18;95886.63;;;21.35
75773;BMP280;64381;0.000;0.000;2022-10-30T02:56:43;95883.84;;;21.35
75773;BMP280;64381;0.000;0.000;2022-10-30T02:59:09;95879.03;;;21.36
75773;BMP280;64381;0.000;0.000;2022-10-30T03:01:34;95875.53;;;21.35
75773;BMP280;64381;0.000;0.000;2022-10-30T03:03:59;95881.06;;;21.35
75773;BMP280;64381;0.000;0.000;2022-10-30T03:06:25;95876.28;;;21.36
75773;BMP280;64381;0.000;0.000;2022-10-30T03:08:50;95877.56;;;21.35
75773;BMP280;64381;0.000;0.000;2022-10-30T03:11:16;95879.03;;;21.36
75773;BMP280;64381;0.000;0.000;2022-10-30T03:13:43;95882.56;;;21.36
75773;BMP280;64381;0.000;0.000;2022-10-30T03:16:20;95890.16;;;21.36
75773;BMP280;64381;0.000;0.000;2022-10-30T03:18:46;95889.41;;;21.35
75773;BMP280;64381;0.000;0.000;2022-10-30T03:21:14;95883.84;;;21.35
75773;BMP280;64381;0.000;0.000;2022-10-30T03:23:40;95887.91;;;21.34
75773;BMP280;64381;0.000;0.000;2022-10-30T03:26:06;95889.41;;;21.35
75773;BMP280;64381;0.000;0.000;2022-10-30T03:28:31;95892.19;;;21.35
75773;BMP280;64381;0.000;0.000;2022-10-30T03:31:01;95892.94;;;21.36
75773;BMP280;64381;0.000;0.000;2022-10-30T03:33:27;95897.00;;;21.35
75773;BMP280;64381;0.000;0.000;2022-10-30T03:35:52;95901.06;;;21.34
75773;BMP280;64381;0.000;0.000;2022-10-30T03:38:17;95899.00;;;21.34
75773;BMP280;64381;0.000;0.000;2022-10-30T03:40:43;95896.25;;;21.34
75773;BMP280;64381;0.000;0.000;2022-10-30T03:43:08;95887.91;;;21.34
75773;BMP280;64381;0.000;0.000;2022-10-30T03:45:33;95888.66;;;21.35
75773;BMP280;64381;0.000;0.000;2022-10-30T03:48:03;95885.88;;;21.35
75773;BMP280;64381;0.000;0.000;2022-10-30T03:50:29;95881.66;;;21.34
75773;BMP280;64381;0.000;0.000;2022-10-30T03:52:55;95878.13;;;21.33
75773;BMP280;64381;0.000;0.000;2022-10-30T03:55:21;95876.09;;;21.34
75773;BMP280;64381;0.000;0.000;2022-10-30T03:57:46;95875.34;;;21.33
75773;BMP280;64381;0.000;0.000;2022-10-30T04:00:13;95871.25;;;21.34
75773;BMP280;64381;0.000;0.000;2022-10-30T04:02:38;95876.81;;;21.34
75773;BMP280;64381;0.000;0.000;2022-10-30T04:05:04;95870.56;;;21.34
75773;BMP280;64381;0.000;0.000;2022-10-30T04:07:29;95869.81;;;21.33
75773;BMP280;64381;0.000;0.000;2022-10-30T04:09:55;95869.81;;;21.33
75773;BMP280;64381;0.000;0.000;2022-10-30T04:12:20;95867.59;;;21.32
75773;BMP280;64381;0.000;0.000;2022-10-30T04:14:45;95875.34;;;21.33
75773;BMP280;64381;0.000;0.000;2022-10-30T04:17:10;95877.38;;;21.33
75773;BMP280;64381;0.000;0.000;2022-10-30T04:19:36;95871.13;;;21.32
75773;BMP280;64381;0.000;0.000;2022-10-30T04:22:01;95875.19;;;21.31
75773;BMP280;64381;0.000;0.000;2022-10-30T04:24:26;95882.22;;;21.32
75773;BMP280;64381;0.000;0.000;2022-10-30T04:26:51;95879.44;;;21.32
75773;BMP280;64381;0.000;0.000;2022-10-30T04:29:16;95882.22;;;21.32
75773;BMP280;64381;0.000;0.000;2022-10-30T04:31:42;95885.72;;;21.33
75773;BMP280;64381;0.000;0.000;2022-10-30T04:34:07;95882.22;;;21.32
75773;BMP280;64381;0.000;0.000;2022-10-30T04:36:32;95882.22;;;21.32
75773;BMP280;64381;0.000;0.000;2022-10-30T04:38:57;95889.06;;;21.31
75773;BMP280;64381;0.000;0.000;2022-10-30T04:41:23;95880.16;;;21.33
75773;BMP280;64381;0.000;0.000;2022-10-30T04:43:48;95883.50;;;21.31
75773;BMP280;64381;0.000;0.000;2022-10-30T04:46:14;95876.66;;;21.32
75773;BMP280;64381;0.000;0.000;2022-10-30T04:48:39;95871.13;;;21.32
75773;BMP280;64381;0.000;0.000;2022-10-30T04:51:04;95871.13;;;21.32
75773;BMP280;64381;0.000;0.000;2022-10-30T04:53:29;95874.44;;;21.31
75773;BMP280;64381;0.000;0.000;2022-10-30T04:55:55;95879.44;;;21.32
75773;BMP280;64381;0.000;0.000;2022-10-30T04:58:20;95875.34;;;21.33
75773;BMP280;64381;0.000;0.000;2022-10-30T05:00:45;95870.38;;;21.32
75773;BMP280;64381;0.000;0.000;2022-10-30T05:03:18;95877.38;;;21.33
75773;BMP280;64381;0.000;0.000;2022-10-30T05:05:44;95866.88;;;21.31
75773;BMP280;64381;0.000;0.000;2022-10-30T05:08:10;95865.56;;;21.32
75773;BMP280;64381;0.000;0.000;2022-10-30T05:10:38;95862.81;;;21.32
75773;BMP280;64381;0.000;0.000;2022-10-30T05:13:03;95865.56;;;21.32
75773;BMP280;64381;0.000;0.000;2022-10-30T05:15:29;95862.06;;;21.32
75773;BMP280;64381;0.000;0.000;2022-10-30T05:17:54;95864.84;;;21.32
75773;BMP280;64381;0.000;0.000;2022-10-30T05:20:19;95855.03;;;21.31
75773;BMP280;64381;0.000;0.000;2022-10-30T05:22:45;95853.72;;;21.32
75773;BMP280;64381;0.000;0.000;2022-10-30T05:25:10;95855.75;;;21.31
75773;BMP280;64381;0.000;0.000;2022-10-30T05:27:36;95861.31;;;21.31
75773;BMP280;64381;0.000;0.000;2022-10-30T05:30:01;95859.28;;;21.32
75773;BMP280;64381;0.000;0.000;2022-10-30T05:32:26;95855.75;;;21.31
75773;BMP280;64381;0.000;0.000;2022-10-30T05:34:51;95855.75;;;21.31
75773;BMP280;64381;0.000;0.000;2022-10-30T05:37:17;95857.25;;;21.32
75773;BMP280;64381;0.000;0.000;2022-10-30T05:39:42;95855.94;;;21.33
75773;BMP280;64381;0.000;0.000;2022-10-30T05:42:07;95852.41;;;21.33
75773;BMP280;64381;0.000;0.000;2022-10-30T05:44:33;95854.47;;;21.32
75773;BMP280;64381;0.000;0.000;2022-10-30T05:46:58;95850.97;;;21.32
75773;BMP280;64381;0.000;0.000;2022-10-30T05:49:23;95860.56;;;21.31
75773;BMP280;64381;0.000;0.000;2022-10-30T05:51:48;95861.31;;;21.31
75773;BMP280;64381;0.000;0.000;2022-10-30T05:54:13;95856.50;;;21.32
75773;BMP280;64381;0.000;0.000;2022-10-30T05:56:39;95858.53;;;21.31
75773;BMP280;64381;0.000;0.000;2022-10-30T05:59:04;95855.75;;;21.31
75773;BMP280;64381;0.000;0.000;2022-10-30T06:01:29;95855.75;;;21.31
75773;BMP280;64381;0.000;0.000;2022-10-30T06:03:54;95852.41;;;21.33
75773;BMP280;64381;0.000;0.000;2022-10-30T06:06:20;95844.84;;;21.33
75773;BMP280;64381;0.000;0.000;2022-10-30T06:08:45;95847.44;;;21.31
75773;BMP280;64381;0.000;0.000;2022-10-30T06:11:10;95846.16;;;21.32
75773;BMP280;64381;0.000;0.000;2022-10-30T06:13:35;95849.31;;;21.29
75773;BMP280;64381;0.000;0.000;2022-10-30T06:16:01;95848.72;;;21.30
75773;BMP280;64381;0.000;0.000;2022-10-30T06:18:26;95853.72;;;21.32
75773;BMP280;64381;0.000;0.000;2022-10-30T06:20:53;95860.03;;;21.32
75773;BMP280;64381;0.000;0.000;2022-10-30T06:23:19;95854.47;;;21.32
75773;BMP280;64381;0.000;0.000;2022-10-30T06:25:44;95845.56;;;21.34
75773;BMP280;64381;0.000;0.000;2022-10-30T06:28:10;95836.50;;;21.33
75773;BMP280;64381;0.000;0.000;2022-10-30T06:30:35;95845.56;;;21.34
75773;BMP280;64381;0.000;0.000;2022-10-30T06:33:03;95842.06;;;21.33
75773;BMP280;64381;0.000;0.000;2022-10-30T06:35:29;95841.31;;;21.33
75773;BMP280;64381;0.000;0.000;2022-10-30T06:37:55;95839.28;;;21.33
75773;BMP280;64381;0.000;0.000;2022-10-30T06:40:23;95839.28;;;21.33
75773;BMP280;64381;0.000;0.000;2022-10-30T06:42:50;95838.53;;;21.33
75773;BMP280;64381;0.000;0.000;2022-10-30T06:45:16;95847.59;;;21.33
75773;BMP280;64381;0.000;0.000;2022-10-30T06:47:42;95840.59;;;21.32
75773;BMP280;64381;0.000;0.000;2022-10-30T06:50:10;95846.16;;;21.32
75773;BMP280;64381;0.000;0.000;2022-10-30T06:52:36;95843.91;;;21.31
75773;BMP280;64381;0.000;0.000;2022-10-30T06:55:02;95849.47;;;21.31
75773;BMP280;64381;0.000;0.000;2022-10-30T06:57:27;95843.91;;;21.31
75773;BMP280;64381;0.000;0.000;2022-10-30T06:59:52;95837.81;;;21.32
75773;BMP280;64381;0.000;0.000;2022-10-30T07:02:17;95839.13;;;21.31
75773;BMP280;64381;0.000;0.000;2022-10-30T07:04:43;95841.88;;;21.31
75773;BMP280;64381;0.000;0.000;2022-10-30T07:07:08;95848.72;;;21.30
75773;BMP280;64381;0.000;0.000;2022-10-30T07:09:33;95843.19;;;21.30
75773;BMP280;64381;0.000;0.000;2022-10-30T07:11:59;95848.72;;;21.30
75773;BMP280;64381;0.000;0.000;2022-10-30T07:14:24;95847.44;;;21.31
75773;BMP280;64381;0.000;0.000;2022-10-30T07:16:49;95845.94;;;21.30
75773;BMP280;64381;0.000;0.000;2022-10-30T07:19:14;95849.47;;;21.31
75773;BMP280;64381;0.000;0.000;2022-10-30T07:21:39;95852.25;;;21.31
75773;BMP280;64381;0.000;0.000;2022-10-30T07:24:05;95851.50;;;21.30
75773;BMP280;64381;0.000;0.000;2022-10-30T07:26:30;95868.91;;;21.31
75773;BMP280;64381;0.000;0.000;2022-10-30T07:28:56;95859.13;;;21.30
75773;BMP280;64381;0.000;0.000;2022-10-30T07:31:21;95865.38;;;21.30
75773;BMP280;64381;0.000;0.000;2022-10-30T07:33:46;95865.38;;;21.30
75773;BMP280;64381;0.000;0.000;2022-10-30T07:36:11;95864.66;;;21.30
75773;BMP280;64381;0.000;0.000;2022-10-30T07:38:37;95864.66;;;21.30
75773;BMP280;64381;0.000;0.000;2022-10-30T07:41:02;95859.81;;;21.30
75773;BMP280;64381;0.000;0.000;2022-10-30T07:43:27;95864.66;;;21.30
75773;BMP280;64381;0.000;0.000;2022-10-30T07:45:52;95864.66;;;21.30
75773;BMP280;64381;0.000;0.000;2022-10-30T07:48:18;95871.50;;;21.29
75773;BMP280;64381;0.000;0.000;2022-10-30T07:50:43;95869.47;;;21.29
75773;BMP280;64381;0.000;0.000;2022-10-30T07:53:08;95872.25;;;21.29
75773;BMP280;64381;0.000;0.000;2022-10-30T07:55:33;95870.22;;;21.30
75773;BMP280;64381;0.000;0.000;2022-10-30T07:57:58;95870.22;;;21.30
75773;BMP280;64381;0.000;0.000;2022-10-30T08:00:24;95875.75;;;21.30
75773;BMP280;64381;0.000;0.000;2022-10-30T08:02:50;95877.78;;;21.29
75773;BMP280;64381;0.000;0.000;2022-10-30T08:05:16;95875.00;;;21.29
75773;BMP280;64381;0.000;0.000;2022-10-30T08:07:44;95883.50;;;21.31
75773;BMP280;64381;0.000;0.000;2022-10-30T08:10:10;95872.25;;;21.29
75773;BMP280;64381;0.000;0.000;2022-10-30T08:12:35;95880.75;;;21.31
75773;BMP280;64381;0.000;0.000;2022-10-30T08:15:00;95875.75;;;21.30
75773;BMP280;64381;0.000;0.000;2022-10-30T08:17:26;95872.97;;;21.30
75773;BMP280;64381;0.000;0.000;2022-10-30T08:19:51;95875.75;;;21.30
75773;BMP280;64381;0.000;0.000;2022-10-30T08:22:16;95877.78;;;21.29
75773;BMP280;64381;0.000;0.000;2022-10-30T08:24:42;95878.34;;;21.28
75773;BMP280;64381;0.000;0.000;2022-10-30T08:27:07;95875.75;;;21.30
75773;BMP280;64381;0.000;0.000;2022-10-30T08:29:33;95875.00;;;21.29
75773;BMP280;64381;0.000;0.000;2022-10-30T08:31:58;95875.00;;;21.29
75773;BMP280;64381;0.000;0.000;2022-10-30T08:34:23;95866.69;;;21.29
75773;BMP280;64381;0.000;0.000;2022-10-30T08:36:50;95869.47;;;21.29
75773;BMP280;64381;0.000;0.000;2022-10-30T08:39:18;95869.63;;;21.31
75773;BMP280;64381;0.000;0.000;2022-10-30T08:41:44;95863.16;;;21.29
75773;BMP280;64381;0.000;0.000;2022-10-30T08:44:09;95869.47;;;21.29
75773;BMP280;64381;0.000;0.000;2022-10-30T08:46:35;95864.66;;;21.30
75773;BMP280;64381;0.000;0.000;2022-10-30T08:49:00;95868.16;;;21.30
75773;BMP280;64381;0.000;0.000;2022-10-30T08:51:26;95862.44;;;21.28
75773;BMP280;64381;0.000;0.000;2022-10-30T08:53:51;95859.66;;;21.28
75773;BMP280;64381;0.000;0.000;2022-10-30T08:56:17;95862.44;;;21.28
75773;BMP280;64381;0.000;0.000;2022-10-30T08:58:42;95857.63;;;21.29
75773;BMP280;64381;0.000;0.000;2022-10-30T09:01:07;95859.66;;;21.28
75773;BMP280;64381;0.000;0.000;2022-10-30T09:03:32;95856.88;;;21.28
75773;BMP280;64381;0.000;0.000;2022-10-30T09:05:58;95857.63;;;21.29
75773;BMP280;64381;0.000;0.000;2022-10-30T09:08:24;95858.38;;;21.29
75773;BMP280;64381;0.000;0.000;2022-10-30T09:10:56;95859.81;;;21.30
75773;BMP280;64381;0.000;0.000;2022-10-30T09:13:22;95852.81;;;21.29
75773;BMP280;64381;0.000;0.000;2022-10-30T09:15:48;95855.59;;;21.29
75773;BMP280;64381;0.000;0.000;2022-10-30T09:18:13;95855.59;;;21.29
75773;BMP280;64381;0.000;0.000;2022-10-30T09:20:38;95857.63;;;21.29
75773;BMP280;64381;0.000;0.000;2022-10-30T09:23:03;95857.63;;;21.29
75773;BMP280;64381;0.000;0.000;2022-10-30T09:25:29;95852.06;;;21.29
75773;BMP280;64381;0.000;0.000;2022-10-30T09:27:54;95862.44;;;21.28
75773;BMP280;64381;0.000;0.000;2022-10-30T09:30:19;95865.94;;;21.29
75773;BMP280;64381;0.000;0.000;2022-10-30T09:32:45;95860.41;;;21.29
75773;BMP280;64381;0.000;0.000;2022-10-30T09:35:10;95858.91;;;21.28
75773;BMP280;64381;0.000;0.000;2022-10-30T09:37:37;95868.72;;;21.29
75773;BMP280;64381;0.000;0.000;2022-10-30T09:40:03;95861.88;;;21.30
75773;BMP280;64381;0.000;0.000;2022-10-30T09:42:42;95857.78;;;21.31
75773;BMP280;64381;0.000;0.000;2022-10-30T09:48:08;95868.16;;;21.30
75773;BMP280;64381;0.000;0.000;2022-10-30T09:50:53;95862.44;;;21.28
75773;BMP280;64381;0.000;0.000;2022-10-30T09:56:18;95858.91;;;21.28
75773;BMP280;64381;0.000;0.000;2022-10-30T10:02:15;95856.69;;;21.26
75773;BMP280;64381;0.000;0.000;2022-10-30T10:04:25;95859.66;;;21.28
75773;BMP280;64381;0.000;0.000;2022-10-30T10:07:03;95864.66;;;21.30
75773;BMP280;64381;0.000;0.000;2022-10-30T10:09:33;95862.44;;;21.28
75773;BMP280;64381;0.000;0.000;2022-10-30T10:12:05;95856.34;;;21.30
75773;BMP280;64381;0.000;0.000;2022-10-30T10:14:34;95856.13;;;21.28
75773;BMP280;64381;0.000;0.000;2022-10-30T10:17:04;95861.88;;;21.30
75773;BMP280;64381;0.000;0.000;2022-10-30T10:19:44;95854.28;;;21.30
75773;BMP280;64381;0.000;0.000;2022-10-30T10:22:25;95854.28;;;21.30
75773;BMP280;64381;0.000;0.000;2022-10-30T10:24:51;95860.94;;;21.27
75773;BMP280;64381;0.000;0.000;2022-10-30T10:27:27;95848.56;;;21.28
75773;BMP280;64381;0.000;0.000;2022-10-30T10:30:04;95855.59;;;21.29
75773;BMP280;64381;0.000;0.000;2022-10-30T10:51:37;95859.66;;;21.28
75773;BMP280;64381;0.000;0.000;2022-10-30T10:54:23;95852.81;;;21.29
75773;BMP280;64381;0.000;0.000;2022-10-30T10:56:50;95849.84;;;21.27
75773;BMP280;64381;0.000;0.000;2022-10-30T10:59:19;95847.25;;;21.29
75773;BMP280;64381;0.000;0.000;2022-10-30T11:04:39;95848.56;;;21.28
75773;BMP280;64381;0.000;0.000;2022-10-30T11:07:20;95836.91;;;21.30
75773;BMP280;64381;0.000;0.000;2022-10-30T11:09:49;95844.50;;;21.29
75773;BMP280;64381;0.000;0.000;2022-10-30T11:12:15;95843.00;;;21.28
75773;BMP280;64381;0.000;0.000;2022-10-30T11:14:41;95837.47;;;21.28
75773;BMP280;64381;0.000;0.000;2022-10-30T11:17:19;95841.16;;;21.31
75773;BMP280;64381;0.000;0.000;2022-10-30T11:19:46;95838.94;;;21.29
75773;BMP280;64381;0.000;0.000;2022-10-30T11:22:22;95832.81;;;21.31
75773;BMP280;64381;0.000;0.000;2022-10-30T11:24:49;95838.94;;;21.29
75773;BMP280;64381;0.000;0.000;2022-10-30T11:29:48;95828.59;;;21.30
75773;BMP280;64381;0.000;0.000;2022-10-30T11:32:18;95830.78;;;21.31
75773;BMP280;64381;0.000;0.000;2022-10-30T11:34:43;95825.06;;;21.29
75773;BMP280;64381;0.000;0.000;2022-10-30T11:37:29;95834.84;;;21.30
75773;BMP280;64381;0.000;0.000;2022-10-30T11:40:04;95826.53;;;21.30
75773;BMP280;64381;0.000;0.000;2022-10-30T11:42:31;95819.53;;;21.29
75773;BMP280;64381;0.000;0.000;2022-10-30T11:44:56;95822.28;;;21.29
75773;BMP280;64381;0.000;0.000;2022-10-30T11:47:31;95816.16;;;21.31
75773;BMP280;64381;0.000;0.000;2022-10-30T11:49:58;95820.97;;;21.30
75773;BMP280;64381;0.000;0.000;2022-10-30T11:52:25;95817.50;;;21.30
75773;BMP280;64381;0.000;0.000;2022-10-30T11:55:23;95813.41;;;21.31
75773;BMP280;64381;0.000;0.000;2022-10-30T11:57:59;95818.19;;;21.30
75773;BMP280;64381;0.000;0.000;2022-10-30T12:00:26;95811.94;;;21.30
75773;BMP280;64381;0.000;0.000;2022-10-30T12:02:56;95805.81;;;21.31
75773;BMP280;64381;0.000;0.000;2022-10-30T12:07:54;95802.88;;;21.29
75773;BMP280;64381;0.000;0.000;2022-10-30T12:10:41;95808.41;;;21.29
75773;BMP280;64381;0.000;0.000;2022-10-30T12:13:13;95803.63;;;21.30
75773;BMP280;64381;0.000;0.000;2022-10-30T12:15:39;95799.34;;;21.29
75773;BMP280;64381;0.000;0.000;2022-10-30T12:18:06;95791.78;;;21.29
75773;BMP280;64381;0.000;0.000;2022-10-30T12:20:32;95791.78;;;21.29
75773;BMP280;64381;0.000;0.000;2022-10-30T12:23:14;95784.34;;;21.32
75773;BMP280;64381;0.000;0.000;2022-10-30T12:25:45;95787.69;;;21.30
75773;BMP280;64381;0.000;0.000;2022-10-30T12:28:14;95782.88;;;21.31
75773;BMP280;64381;0.000;0.000;2022-10-30T12:33:21;95768.25;;;21.30
75773;BMP280;64381;0.000;0.000;2022-10-30T12:35:55;95770.31;;;21.30
75773;BMP280;64381;0.000;0.000;2022-10-30T12:38:27;95766.22;;;21.31
75773;BMP280;64381;0.000;0.000;2022-10-30T12:41:02;95763.44;;;21.31
75773;BMP280;64381;0.000;0.000;2022-10-30T12:43:31;95762.00;;;21.30
75773;BMP280;64381;0.000;0.000;2022-10-30T12:46:13;95755.13;;;21.31
75773;BMP280;64381;0.000;0.000;2022-10-30T12:49:02;95757.16;;;21.30
75773;BMP280;64381;0.000;0.000;2022-10-30T12:54:57;95763.28;;;21.29
75773;BMP280;64381;0.000;0.000;2022-10-30T12:57:32;95754.22;;;21.28
75773;BMP280;64381;0.000;0.000;2022-10-30T13:00:19;95756.25;;;21.28
75773;BMP280;64381;0.000;0.000;2022-10-30T13:03:00;95755.69;;;21.29
75773;BMP280;64381;0.000;0.000;2022-10-30T13:05:33;95752.19;;;21.29
75773;BMP280;64381;0.000;0.000;2022-10-30T13:10:30;95745.91;;;21.28
75773;BMP280;64381;0.000;0.000;2022-10-30T13:13:02;95754.38;;;21.30
75773;BMP280;64381;0.000;0.000;2022-10-30T13:15:45;95749.56;;;21.31
75773;BMP280;64381;0.000;0.000;2022-10-30T13:18:21;95752.94;;;21.29
75773;BMP280;64381;0.000;0.000;2022-10-30T13:23:54;95750.91;;;21.30
75773;BMP280;64381;0.000;0.000;2022-10-30T13:29:00;95753.66;;;21.30
75773;BMP280;64381;0.000;0.000;2022-10-30T13:31:37;95742.56;;;21.30
75773;BMP280;64381;0.000;0.000;2022-10-30T13:37:26;95746.63;;;21.29
75773;BMP280;64381;0.000;0.000;2022-10-30T13:40:06;95745.34;;;21.30
75773;BMP280;64381;0.000;0.000;2022-10-30T13:42:52;95748.66;;;21.28
75773;BMP280;64381;0.000;0.000;2022-10-30T13:53:29;95748.66;;;21.28
75773;BMP280;64381;0.000;0.000;2022-10-30T13:55:56;95751.44;;;21.28
75773;BMP280;64381;0.000;0.000;2022-10-30T13:58:36;95745.34;;;21.30
75773;BMP280;64381;0.000;0.000;2022-10-30T14:03:50;95746.06;;;21.30
75773;BMP280;64381;0.000;0.000;2022-10-30T14:15:05;95752.00;;;21.27
75773;BMP280;64381;0.000;0.000;2022-10-30T14:17:30;95745.16;;;21.28
75773;BMP280;64381;0.000;0.000;2022-10-30T14:22:31;95737.56;;;21.28
75773;BMP280;64381;0.000;0.000;2022-10-30T14:24:57;95747.38;;;21.29
75773;BMP280;64381;0.000;0.000;2022-10-30T14:27:28;95742.00;;;21.31
75773;BMP280;64381;0.000;0.000;2022-10-30T14:29:54;95744.59;;;21.29
75773;BMP280;64381;0.000;0.000;2022-10-30T14:40:40;95744.59;;;21.29
75773;BMP280;64381;0.000;0.000;2022-10-30T14:43:19;95741.84;;;21.29
75773;BMP280;64381;0.000;0.000;2022-10-30T14:45:53;95750.16;;;21.29
75773;BMP280;64381;0.000;0.000;2022-10-30T14:51:21;95741.09;;;21.29
75773;BMP280;64381;0.000;0.000;2022-10-30T14:53:57;95750.16;;;21.29
75773;BMP280;64381;0.000;0.000;2022-10-30T14:56:40;95748.13;;;21.30
75773;BMP280;64381;0.000;0.000;2022-10-30T14:59:19;95743.28;;;21.30
75773;BMP280;64381;0.000;0.000;2022-10-30T15:05:05;95747.38;;;21.29
75773;BMP280;64381;0.000;0.000;2022-10-30T15:07:43;95748.13;;;21.30
75773;BMP280;64381;0.000;0.000;2022-10-30T15:10:50;95739.22;;;21.31
75773;BMP280;64381;0.000;0.000;2022-10-30T15:13:22;95740.34;;;21.28
75773;BMP280;64381;0.000;0.000;2022-10-30T15:16:02;95742.00;;;21.31
75773;BMP280;64381;0.000;0.000;2022-10-30T15:18:29;95739.06;;;21.29
75773;BMP280;64381;0.000;0.000;2022-10-30T15:20:54;95741.84;;;21.29
75773;BMP280;64381;0.000;0.000;2022-10-30T15:23:28;95741.41;;;21.33
75773;BMP280;64381;0.000;0.000;2022-10-30T15:25:55;95747.53;;;21.31
75773;BMP280;64381;0.000;0.000;2022-10-30T15:28:25;95749.03;;;21.32
75773;BMP280;64381;0.000;0.000;2022-10-30T15:33:30;95753.09;;;21.31
75773;BMP280;64381;0.000;0.000;2022-10-30T15:35:56;95752.34;;;21.31
75773;BMP280;64381;0.000;0.000;2022-10-30T15:38:21;95754.38;;;21.30
75773;BMP280;64381;0.000;0.000;2022-10-30T15:40:47;95747.38;;;21.29
75773;BMP280;64381;0.000;0.000;2022-10-30T15:43:13;95747.53;;;21.31
75773;BMP280;64381;0.000;0.000;2022-10-30T15:45:45;95751.81;;;21.32
75773;BMP280;64381;0.000;0.000;2022-10-30T15:48:29;95759.38;;;21.32
75773;BMP280;64381;0.000;0.000;2022-10-30T15:51:02;95757.34;;;21.32
75773;BMP280;64381;0.000;0.000;2022-10-30T15:53:51;95754.59;;;21.32
75773;BMP280;64381;0.000;0.000;2022-10-30T15:56:35;95757.91;;;21.31
75773;BMP280;64381;0.000;0.000;2022-10-30T15:59:04;95759.38;;;21.32
75773;BMP280;64381;0.000;0.000;2022-10-30T16:01:32;95760.69;;;21.31
75773;BMP280;64381;0.000;0.000;2022-10-30T16:03:58;95764.19;;;21.31
75773;BMP280;64381;0.000;0.000;2022-10-30T16:06:26;95757.91;;;21.31
75773;BMP280;64381;0.000;0.000;2022-10-30T16:08:51;95763.44;;;21.31
75773;BMP280;64381;0.000;0.000;2022-10-30T16:11:17;95762.72;;;21.30
75773;BMP280;64381;0.000;0.000;2022-10-30T16:13:42;95766.81;;;21.29
75773;BMP280;64381;0.000;0.000;2022-10-30T16:16:15;95766.41;;;21.33
75773;BMP280;64381;0.000;0.000;2022-10-30T16:18:41;95762.00;;;21.30
75773;BMP280;64381;0.000;0.000;2022-10-30T16:21:09;95769.75;;;21.31